createdAt,value
2019-05-14T18:26:34.770Z,3.70
2019-05-14T18:29:04.599Z,3.77
2019-05-14T18:31:33.125Z,3.90
2019-05-14T18:34:01.537Z,3.80
2019-05-14T18:36:29.977Z,3.60
2019-05-14T18:38:58.782Z,3.90
2019-05-14T18:41:29.398Z,3.80
2019-05-14T18:46:28.537Z,3.80
2019-05-14T18:48:59.220Z,3.55
2019-05-14T18:51:28.766Z,4.05
2019-05-14T18:56:29.305Z,3.70
2019-05-14T18:58:57.357Z,3.92
2019-05-14T19:01:28.634Z,3.85
2019-05-14T19:03:58.742Z,3.85
2019-05-14T19:06:28.380Z,4.35
2019-05-14T19:08:56.270Z,4.00
2019-05-14T19:11:24.712Z,3.98
2019-05-14T19:13:53.137Z,3.80
2019-05-14T19:16:21.556Z,4.05
2019-05-14T19:18:50.192Z,3.87
2019-05-14T19:21:18.614Z,3.83
2019-05-14T19:23:49.008Z,4.08
2019-05-14T19:26:32.523Z,4.20
2019-05-14T19:31:18.384Z,4.20
2019-05-14T19:33:48.787Z,4.22
2019-05-14T19:36:18.765Z,4.90
2019-05-14T19:38:48.134Z,5.58
2019-05-14T19:41:18.856Z,4.65
2019-05-14T19:43:46.921Z,4.00
2019-05-14T19:46:15.334Z,4.47
2019-05-14T19:48:43.779Z,4.45
2019-05-14T19:51:12.192Z,6.33
2019-05-14T19:53:40.989Z,5.58
2019-05-14T19:56:09.411Z,5.60
2019-05-14T19:58:38.525Z,5.60
2019-05-14T20:01:09.137Z,5.20
2019-05-14T20:03:37.859Z,5.35
2019-05-14T20:06:08.819Z,5.55
2019-05-14T20:11:05.791Z,6.03
2019-05-14T20:13:34.251Z,6.40
2019-05-14T20:16:02.668Z,7.25
2019-05-14T20:18:31.093Z,7.97
2019-05-14T20:20:59.513Z,6.08
2019-05-14T20:23:29.119Z,7.17
2019-05-14T20:25:58.718Z,7.50
2019-05-14T20:28:27.472Z,7.70
2019-05-14T20:30:58.516Z,10.75
2019-05-14T20:33:26.177Z,8.95
2019-05-14T20:35:54.587Z,7.85
2019-05-14T20:38:23.006Z,8.30
2019-05-14T20:40:51.429Z,7.35
2019-05-14T20:43:19.861Z,7.17
2019-05-14T20:45:48.811Z,7.22
2019-05-14T20:48:18.838Z,8.07
2019-05-14T20:50:47.774Z,6.90
2019-05-14T20:53:18.553Z,6.28
2019-05-14T20:55:46.404Z,5.40
2019-05-14T20:58:14.809Z,4.90
2019-05-14T21:00:43.227Z,4.60
2019-05-14T21:03:11.740Z,4.30
2019-05-14T21:05:42.392Z,4.60
2019-05-14T21:08:13.611Z,4.13
2019-05-14T21:10:40.433Z,4.53
2019-05-14T21:13:08.909Z,4.57
2019-05-14T21:15:39.119Z,4.55
2019-05-14T21:18:08.347Z,4.90
2019-05-14T21:20:39.311Z,4.58
2019-05-14T21:23:08.995Z,5.00
2019-05-14T21:25:38.741Z,7.20
2019-05-14T21:28:09.365Z,7.62
2019-05-14T21:30:38.816Z,8.73
2019-05-14T21:33:08.431Z,8.67
2019-05-14T21:35:38.909Z,6.83
2019-05-14T21:38:09.098Z,6.77
2019-05-14T21:40:38.902Z,7.58
2019-05-14T21:43:11.027Z,6.97
2019-05-14T21:45:38.441Z,7.00
2019-05-14T21:48:08.717Z,7.93
2019-05-14T21:50:38.810Z,10.28
2019-05-14T21:53:08.382Z,11.73
2019-05-14T21:55:38.817Z,9.60
2019-05-14T21:58:09.140Z,9.57
2019-05-14T22:00:42.426Z,9.25
2019-05-14T22:03:11.177Z,8.88
2019-05-14T22:05:39.688Z,9.90
2019-05-14T22:08:08.871Z,8.80
2019-05-14T22:10:39.708Z,8.78
2019-05-14T22:13:07.745Z,9.33
2019-05-14T22:15:38.662Z,8.70
2019-05-14T22:18:16.469Z,9.37
2019-05-14T22:20:38.564Z,7.72
2019-05-14T22:23:08.942Z,8.00
2019-05-14T22:25:39.325Z,7.67
2019-05-14T22:28:14.988Z,6.62
2019-05-14T22:30:38.809Z,8.28
2019-05-14T22:33:08.560Z,7.90
2019-05-14T22:35:39.694Z,7.62
2019-05-14T22:38:07.437Z,7.17
2019-05-14T22:40:35.878Z,6.90
2019-05-14T22:43:04.359Z,5.80
2019-05-14T22:45:32.774Z,5.95
2019-05-14T22:48:01.262Z,5.10
2019-05-14T22:50:29.668Z,4.50
2019-05-14T22:52:58.631Z,5.40
2019-05-14T22:55:30.990Z,4.30
2019-05-14T22:57:59.233Z,4.92
2019-05-14T23:00:28.562Z,4.70
2019-05-14T23:02:57.348Z,4.80
2019-05-14T23:05:25.773Z,4.20
2019-05-14T23:07:54.304Z,4.40
2019-05-14T23:10:22.735Z,4.47
2019-05-14T23:12:51.144Z,4.53
2019-05-14T23:15:19.593Z,4.80
2019-05-14T23:17:48.204Z,4.72
2019-05-14T23:20:19.372Z,4.42
2019-05-14T23:22:49.235Z,4.70
2019-05-14T23:25:18.439Z,4.35
2019-05-14T23:27:48.158Z,4.40
2019-05-14T23:30:19.934Z,4.80
2019-05-14T23:32:48.978Z,5.10
2019-05-14T23:35:18.769Z,2.42
2019-05-14T23:37:48.923Z,2.95
2019-05-14T23:40:18.061Z,2.85
2019-05-14T23:42:49.046Z,5.35
2019-05-14T23:45:18.929Z,4.47
2019-05-14T23:47:49.299Z,5.03
2019-05-14T23:50:17.080Z,2.65
2019-05-14T23:52:45.656Z,2.77
2019-05-14T23:55:14.160Z,2.60
2019-05-14T23:57:42.585Z,2.72
